sensor_id;sensor_type;location;lat;lon;timestamp;pressure;altitude;pressure_sealevel;temperature;humidity
48204;BME280;33994;50.998;5.864;2023-04-24T00:00:20;99652.81;;;9.97;77.09
48204;BME280;33994;50.998;5.864;2023-04-24T00:03:24;99658.09;;;9.96;77.53
48204;BME280;33994;50.998;5.864;2023-04-24T00:06:27;99664.09;;;9.98;77.79
48204;BME280;33994;50.998;5.864;2023-04-24T00:09:31;99656.25;;;10.00;78.03
48204;BME280;33994;50.998;5.864;2023-04-24T00:12:35;99658.78;;;10.01;78.20
48204;BME280;33994;50.998;5.864;2023-04-24T00:15:38;99663.25;;;9.97;78.36
48204;BME280;33994;50.998;5.864;2023-04-24T00:18:41;99671.09;;;9.97;78.60
48204;BME280;33994;50.998;5.864;2023-04-24T00:21:44;99664.41;;;9.89;78.61
48204;BME280;33994;50.998;5.864;2023-04-24T00:24:49;99669.66;;;9.87;78.67
48204;BME280;33994;50.998;5.864;2023-04-24T00:27:52;99659.41;;;9.81;78.69
48204;BME280;33994;50.998;5.864;2023-04-24T00:30:55;99671.63;;;9.81;78.90
48204;BME280;33994;50.998;5.864;2023-04-24T00:33:58;99665.63;;;9.77;78.89
48204;BME280;33994;50.998;5.864;2023-04-24T00:37:01;99671.00;;;9.72;78.90
48204;BME280;33994;50.998;5.864;2023-04-24T00:40:07;99665.78;;;9.71;79.01
48204;BME280;33994;50.998;5.864;2023-04-24T00:43:10;99667.63;;;9.69;78.93
48204;BME280;33994;50.998;5.864;2023-04-24T00:46:14;99670.31;;;9.66;79.08
48204;BME280;33994;50.998;5.864;2023-04-24T00:49:17;99665.94;;;9.66;79.18
48204;BME280;33994;50.998;5.864;2023-04-24T00:52:21;99663.25;;;9.69;79.03
48204;BME280;33994;50.998;5.864;2023-04-24T00:55:25;99662.47;;;9.66;79.00
48204;BME280;33994;50.998;5.864;2023-04-24T00:58:29;99671.22;;;9.65;79.10
48204;BME280;33994;50.998;5.864;2023-04-24T01:01:32;99662.66;;;9.60;79.24
48204;BME280;33994;50.998;5.864;2023-04-24T01:04:35;99660.09;;;9.58;79.34
48204;BME280;33994;50.998;5.864;2023-04-24T01:07:39;99649.81;;;9.52;79.56
48204;BME280;33994;50.998;5.864;2023-04-24T01:10:44;99656.63;;;9.58;79.73
48204;BME280;33994;50.998;5.864;2023-04-24T01:13:48;99659.25;;;9.58;79.52
48204;BME280;33994;50.998;5.864;2023-04-24T01:16:51;99656.66;;;9.56;79.54
48204;BME280;33994;50.998;5.864;2023-04-24T01:19:54;99658.50;;;9.53;79.69
48204;BME280;33994;50.998;5.864;2023-04-24T01:22:59;99652.47;;;9.51;79.98
48204;BME280;33994;50.998;5.864;2023-04-24T01:26:02;99646.41;;;9.50;80.06
48204;BME280;33994;50.998;5.864;2023-04-24T01:29:05;99650.88;;;9.46;80.29
48204;BME280;33994;50.998;5.864;2023-04-24T01:32:08;99650.78;;;9.49;80.24
48204;BME280;33994;50.998;5.864;2023-04-24T01:35:11;99647.28;;;9.49;80.46
48204;BME280;33994;50.998;5.864;2023-04-24T01:38:16;99642.03;;;9.51;80.51
48204;BME280;33994;50.998;5.864;2023-04-24T01:41:20;99662.94;;;9.51;80.48
48204;BME280;33994;50.998;5.864;2023-04-24T01:44:23;99646.41;;;9.50;80.48
48204;BME280;33994;50.998;5.864;2023-04-24T01:47:26;99649.03;;;9.48;80.47
48204;BME280;33994;50.998;5.864;2023-04-24T01:50:29;99654.28;;;9.48;80.45
48204;BME280;33994;50.998;5.864;2023-04-24T01:53:33;99650.00;;;9.46;80.76
48204;BME280;33994;50.998;5.864;2023-04-24T01:56:39;99655.25;;;9.44;80.80
48204;BME280;33994;50.998;5.864;2023-04-24T01:59:43;99655.34;;;9.41;80.86
48204;BME280;33994;50.998;5.864;2023-04-24T02:02:46;99659.69;;;9.42;80.91
48204;BME280;33994;50.998;5.864;2023-04-24T02:05:49;99656.16;;;9.43;80.95
48204;BME280;33994;50.998;5.864;2023-04-24T02:08:54;99639.75;;;9.40;80.99
48204;BME280;33994;50.998;5.864;2023-04-24T02:11:57;99657.06;;;9.42;80.90
48204;BME280;33994;50.998;5.864;2023-04-24T02:15:00;99647.44;;;9.44;80.85
48204;BME280;33994;50.998;5.864;2023-04-24T02:18:04;99651.00;;;9.42;80.88
48204;BME280;33994;50.998;5.864;2023-04-24T02:21:07;99651.78;;;9.44;80.93
48204;BME280;33994;50.998;5.864;2023-04-24T02:24:11;99645.81;;;9.40;81.11
48204;BME280;33994;50.998;5.864;2023-04-24T02:27:15;99651.22;;;9.34;81.12
48204;BME280;33994;50.998;5.864;2023-04-24T02:30:18;99659.06;;;9.34;81.36
48204;BME280;33994;50.998;5.864;2023-04-24T02:33:21;99655.56;;;9.34;81.50
48204;BME280;33994;50.998;5.864;2023-04-24T02:36:25;99649.50;;;9.33;81.51
48204;BME280;33994;50.998;5.864;2023-04-24T02:39:29;99654.78;;;9.30;81.68
48204;BME280;33994;50.998;5.864;2023-04-24T02:42:32;99648.78;;;9.28;81.82
48204;BME280;33994;50.998;5.864;2023-04-24T02:45:35;99653.16;;;9.26;82.12
48204;BME280;33994;50.998;5.864;2023-04-24T02:48:38;99652.28;;;9.27;82.37
48204;BME280;33994;50.998;5.864;2023-04-24T02:51:42;99640.88;;;9.30;82.30
48204;BME280;33994;50.998;5.864;2023-04-24T02:54:46;99660.13;;;9.27;82.40
48204;BME280;33994;50.998;5.864;2023-04-24T02:57:49;99649.72;;;9.25;82.50
48204;BME280;33994;50.998;5.864;2023-04-24T03:00:53;99651.47;;;9.25;82.63
48204;BME280;33994;50.998;5.864;2023-04-24T03:03:56;99647.94;;;9.26;82.53
48204;BME280;33994;50.998;5.864;2023-04-24T03:07:00;99653.28;;;9.21;82.66
48204;BME280;33994;50.998;5.864;2023-04-24T03:10:05;99657.63;;;9.21;82.74
48204;BME280;33994;50.998;5.864;2023-04-24T03:13:08;99662.78;;;9.24;82.48
48204;BME280;33994;50.998;5.864;2023-04-24T03:16:12;99657.59;;;9.22;82.34
48204;BME280;33994;50.998;5.864;2023-04-24T03:19:15;99657.69;;;9.19;81.80
48204;BME280;33994;50.998;5.864;2023-04-24T03:22:18;99660.25;;;9.21;81.47
48204;BME280;33994;50.998;5.864;2023-04-24T03:25:22;99664.66;;;9.19;81.62
48204;BME280;33994;50.998;5.864;2023-04-24T03:28:26;99663.84;;;9.17;82.06
48204;BME280;33994;50.998;5.864;2023-04-24T03:31:29;99671.66;;;9.17;82.62
48204;BME280;33994;50.998;5.864;2023-04-24T03:34:32;99671.75;;;9.14;83.07
48204;BME280;33994;50.998;5.864;2023-04-24T03:37:35;99670.97;;;9.10;83.46
48204;BME280;33994;50.998;5.864;2023-04-24T03:40:39;99671.19;;;9.02;83.76
48204;BME280;33994;50.998;5.864;2023-04-24T03:43:42;99666.81;;;9.03;84.25
48204;BME280;33994;50.998;5.864;2023-04-24T03:46:46;99671.19;;;9.02;84.48
48204;BME280;33994;50.998;5.864;2023-04-24T03:49:49;99662.50;;;9.02;84.89
48204;BME280;33994;50.998;5.864;2023-04-24T03:52:52;99659.97;;;8.99;84.98
48204;BME280;33994;50.998;5.864;2023-04-24T03:55:57;99659.19;;;8.95;85.18
48204;BME280;33994;50.998;5.864;2023-04-24T03:58:59;99664.50;;;8.92;85.29
48204;BME280;33994;50.998;5.864;2023-04-24T04:02:03;99662.78;;;8.91;85.00
48204;BME280;33994;50.998;5.864;2023-04-24T04:05:06;99670.72;;;8.88;84.96
48204;BME280;33994;50.998;5.864;2023-04-24T04:08:09;99669.97;;;8.83;85.27
48204;BME280;33994;50.998;5.864;2023-04-24T04:11:14;99677.06;;;8.78;86.12
48204;BME280;33994;50.998;5.864;2023-04-24T04:14:17;99677.13;;;8.75;86.83
48204;BME280;33994;50.998;5.864;2023-04-24T04:17:21;99680.72;;;8.71;87.54
48204;BME280;33994;50.998;5.864;2023-04-24T04:20:24;99684.22;;;8.68;88.22
48204;BME280;33994;50.998;5.864;2023-04-24T04:23:27;99680.81;;;8.66;88.81
48204;BME280;33994;50.998;5.864;2023-04-24T04:26:32;99673.09;;;8.63;89.12
48204;BME280;33994;50.998;5.864;2023-04-24T04:29:35;99677.50;;;8.60;89.28
48204;BME280;33994;50.998;5.864;2023-04-24T04:32:38;99680.31;;;8.52;89.41
48204;BME280;33994;50.998;5.864;2023-04-24T04:35:41;99688.06;;;8.53;89.43
48204;BME280;33994;50.998;5.864;2023-04-24T04:38:44;99690.63;;;8.57;89.77
48204;BME280;33994;50.998;5.864;2023-04-24T04:41:49;99688.00;;;8.57;89.59
48204;BME280;33994;50.998;5.864;2023-04-24T04:44:52;99697.66;;;8.53;89.54
48204;BME280;33994;50.998;5.864;2023-04-24T04:47:55;99695.94;;;8.52;89.41
48204;BME280;33994;50.998;5.864;2023-04-24T04:50:58;99699.41;;;8.52;89.50
48204;BME280;33994;50.998;5.864;2023-04-24T04:54:01;99702.84;;;8.55;89.54
48204;BME280;33994;50.998;5.864;2023-04-24T04:57:06;99708.91;;;8.55;89.80
48204;BME280;33994;50.998;5.864;2023-04-24T05:00:10;99702.78;;;8.56;89.79
48204;BME280;33994;50.998;5.864;2023-04-24T05:03:13;99697.59;;;8.56;90.23
48204;BME280;33994;50.998;5.864;2023-04-24T05:06:17;99708.13;;;8.51;90.65
48204;BME280;33994;50.998;5.864;2023-04-24T05:09:19;99707.28;;;8.49;91.58
48204;BME280;33994;50.998;5.864;2023-04-24T05:12:24;99709.03;;;8.50;91.81
48204;BME280;33994;50.998;5.864;2023-04-24T05:15:27;99716.06;;;8.45;92.41
48204;BME280;33994;50.998;5.864;2023-04-24T05:18:31;99710.88;;;8.45;92.91
48204;BME280;33994;50.998;5.864;2023-04-24T05:21:34;99718.69;;;8.45;93.07
48204;BME280;33994;50.998;5.864;2023-04-24T05:24:37;99723.09;;;8.43;93.43
48204;BME280;33994;50.998;5.864;2023-04-24T05:27:42;99730.84;;;8.45;93.72
48204;BME280;33994;50.998;5.864;2023-04-24T05:30:45;99725.75;;;8.40;93.72
48204;BME280;33994;50.998;5.864;2023-04-24T05:33:48;99725.03;;;8.34;93.91
48204;BME280;33994;50.998;5.864;2023-04-24T05:36:51;99738.13;;;8.32;94.59
48204;BME280;33994;50.998;5.864;2023-04-24T05:39:54;99742.41;;;8.33;94.72
48204;BME280;33994;50.998;5.864;2023-04-24T05:42:59;99742.47;;;8.32;95.01
48204;BME280;33994;50.998;5.864;2023-04-24T05:46:02;99759.84;;;8.31;95.11
48204;BME280;33994;50.998;5.864;2023-04-24T05:49:05;99752.06;;;8.30;94.86
48204;BME280;33994;50.998;5.864;2023-04-24T05:52:08;99760.72;;;8.32;94.90
48204;BME280;33994;50.998;5.864;2023-04-24T05:55:12;99775.47;;;8.31;94.76
48204;BME280;33994;50.998;5.864;2023-04-24T05:58:16;99777.19;;;8.32;94.88
48204;BME280;33994;50.998;5.864;2023-04-24T06:01:19;99778.03;;;8.33;95.18
48204;BME280;33994;50.998;5.864;2023-04-24T06:04:23;99780.69;;;8.31;94.88
48204;BME280;33994;50.998;5.864;2023-04-24T06:07:26;99784.97;;;8.34;95.33
48204;BME280;33994;50.998;5.864;2023-04-24T06:10:29;99781.44;;;8.35;95.19
48204;BME280;33994;50.998;5.864;2023-04-24T06:13:33;99794.59;;;8.30;94.44
48204;BME280;33994;50.998;5.864;2023-04-24T06:16:37;99797.25;;;8.27;94.22
48204;BME280;33994;50.998;5.864;2023-04-24T06:19:39;99812.06;;;8.25;94.19
48204;BME280;33994;50.998;5.864;2023-04-24T06:22:43;99807.72;;;8.25;94.97
48204;BME280;33994;50.998;5.864;2023-04-24T06:25:46;99811.19;;;8.26;94.93
48204;BME280;33994;50.998;5.864;2023-04-24T06:28:50;99815.59;;;8.24;95.34
48204;BME280;33994;50.998;5.864;2023-04-24T06:31:53;99821.66;;;8.24;95.43
48204;BME280;33994;50.998;5.864;2023-04-24T06:34:56;99819.06;;;8.23;95.35
48204;BME280;33994;50.998;5.864;2023-04-24T06:38:00;99828.66;;;8.21;95.34
48204;BME280;33994;50.998;5.864;2023-04-24T06:41:03;99841.75;;;8.18;94.82
48204;BME280;33994;50.998;5.864;2023-04-24T06:44:07;99840.94;;;8.16;94.87
48204;BME280;33994;50.998;5.864;2023-04-24T06:47:10;99845.25;;;8.17;94.80
48204;BME280;33994;50.998;5.864;2023-04-24T06:50:14;99854.88;;;8.13;94.83
48204;BME280;33994;50.998;5.864;2023-04-24T06:53:17;99869.69;;;8.10;94.94
48204;BME280;33994;50.998;5.864;2023-04-24T06:56:20;99877.50;;;8.10;94.74
48204;BME280;33994;50.998;5.864;2023-04-24T06:59:25;99881.81;;;8.11;94.76
48204;BME280;33994;50.998;5.864;2023-04-24T07:02:27;99885.38;;;8.07;94.60
48204;BME280;33994;50.998;5.864;2023-04-24T07:05:31;99878.41;;;8.09;94.98
48204;BME280;33994;50.998;5.864;2023-04-24T07:08:34;99885.44;;;8.03;94.72
48204;BME280;33994;50.998;5.864;2023-04-24T07:11:37;99897.69;;;7.98;94.35
48204;BME280;33994;50.998;5.864;2023-04-24T07:14:41;99903.81;;;7.96;94.28
48204;BME280;33994;50.998;5.864;2023-04-24T07:17:45;99897.78;;;7.92;94.24
48204;BME280;33994;50.998;5.864;2023-04-24T07:20:48;99921.31;;;7.89;93.58
48204;BME280;33994;50.998;5.864;2023-04-24T07:23:51;99926.56;;;7.85;93.49
48204;BME280;33994;50.998;5.864;2023-04-24T07:26:54;99936.09;;;7.87;93.37
48204;BME280;33994;50.998;5.864;2023-04-24T07:29:58;99950.81;;;7.90;92.40
48204;BME280;33994;50.998;5.864;2023-04-24T07:33:01;99958.72;;;7.84;91.93
48204;BME280;33994;50.998;5.864;2023-04-24T07:36:05;99955.28;;;7.80;92.16
48204;BME280;33994;50.998;5.864;2023-04-24T07:39:08;99960.56;;;7.77;92.13
48204;BME280;33994;50.998;5.864;2023-04-24T07:42:11;99971.91;;;7.74;92.45
48204;BME280;33994;50.998;5.864;2023-04-24T07:45:15;99970.09;;;7.76;92.83
48204;BME280;33994;50.998;5.864;2023-04-24T07:48:18;99978.81;;;7.75;93.06
48204;BME280;33994;50.998;5.864;2023-04-24T07:51:22;99990.06;;;7.76;93.25
48204;BME280;33994;50.998;5.864;2023-04-24T07:54:25;100001.31;;;7.79;93.20
48204;BME280;33994;50.998;5.864;2023-04-24T07:57:28;100009.91;;;7.83;93.41
48204;BME280;33994;50.998;5.864;2023-04-24T08:00:33;100013.16;;;7.96;94.66
48204;BME280;33994;50.998;5.864;2023-04-24T08:03:36;100019.09;;;8.04;93.85
48204;BME280;33994;50.998;5.864;2023-04-24T08:06:39;100026.94;;;8.02;93.58
48204;BME280;33994;50.998;5.864;2023-04-24T08:09:42;100028.66;;;8.03;93.80
48204;BME280;33994;50.998;5.864;2023-04-24T08:12:45;100037.22;;;8.10;93.19
48204;BME280;33994;50.998;5.864;2023-04-24T13:03:11;100371.97;;;10.43;71.44
48204;BME280;33994;50.998;5.864;2023-04-24T13:06:15;100377.88;;;10.53;71.37
48204;BME280;33994;50.998;5.864;2023-04-24T13:09:18;100373.22;;;10.65;71.22
48204;BME280;33994;50.998;5.864;2023-04-24T13:12:21;100379.09;;;10.75;70.02
48204;BME280;33994;50.998;5.864;2023-04-24T13:15:24;100373.78;;;10.78;69.34
48204;BME280;33994;50.998;5.864;2023-04-24T13:18:29;100379.78;;;10.85;68.99
48204;BME280;33994;50.998;5.864;2023-04-24T13:21:32;100369.88;;;10.98;68.65
48204;BME280;33994;50.998;5.864;2023-04-24T13:24:35;100380.03;;;11.11;68.12
48204;BME280;33994;50.998;5.864;2023-04-24T13:27:38;100380.69;;;11.19;67.63
48204;BME280;33994;50.998;5.864;2023-04-24T13:30:41;100385.75;;;11.27;66.88
48204;BME280;33994;50.998;5.864;2023-04-24T13:33:46;100387.38;;;11.31;66.70
48204;BME280;33994;50.998;5.864;2023-04-24T13:36:50;100391.81;;;11.29;65.70
48204;BME280;33994;50.998;5.864;2023-04-24T13:39:53;100388.41;;;11.26;65.96
48204;BME280;33994;50.998;5.864;2023-04-24T13:42:56;100400.72;;;11.20;64.71
48204;BME280;33994;50.998;5.864;2023-04-24T13:45:59;100382.22;;;11.28;64.94
48204;BME280;33994;50.998;5.864;2023-04-24T13:49:03;100397.06;;;11.29;63.08
48204;BME280;33994;50.998;5.864;2023-04-24T13:52:06;100392.88;;;11.22;62.54
48204;BME280;33994;50.998;5.864;2023-04-24T13:55:10;100391.72;;;11.32;63.14
48204;BME280;33994;50.998;5.864;2023-04-24T13:58:13;100389.03;;;11.35;62.10
48204;BME280;33994;50.998;5.864;2023-04-24T14:01:16;100389.09;;;11.32;61.70
48204;BME280;33994;50.998;5.864;2023-04-24T14:04:21;100381.19;;;11.35;61.09
48204;BME280;33994;50.998;5.864;2023-04-24T14:07:24;100381.03;;;11.41;61.23
48204;BME280;33994;50.998;5.864;2023-04-24T14:10:27;100373.75;;;11.53;61.56
48204;BME280;33994;50.998;5.864;2023-04-24T14:13:31;100367.38;;;11.63;61.90
48204;BME280;33994;50.998;5.864;2023-04-24T14:16:34;100351.50;;;11.69;61.49
48204;BME280;33994;50.998;5.864;2023-04-24T14:19:38;100351.41;;;11.72;61.13
48204;BME280;33994;50.998;5.864;2023-04-24T14:22:41;100356.72;;;11.71;60.97
48204;BME280;33994;50.998;5.864;2023-04-24T14:25:44;100352.59;;;11.60;61.67
48204;BME280;33994;50.998;5.864;2023-04-24T14:28:48;100358.06;;;11.51;61.64
48204;BME280;33994;50.998;5.864;2023-04-24T14:31:51;100361.88;;;11.39;61.26
48204;BME280;33994;50.998;5.864;2023-04-24T14:34:55;100372.53;;;11.33;61.72
48204;BME280;33994;50.998;5.864;2023-04-24T14:37:59;100373.38;;;11.34;61.91
48204;BME280;33994;50.998;5.864;2023-04-24T14:41:02;100372.53;;;11.32;61.63
48204;BME280;33994;50.998;5.864;2023-04-24T14:44:05;100374.47;;;11.25;61.80
48204;BME280;33994;50.998;5.864;2023-04-24T14:47:08;100376.25;;;11.23;62.00
48204;BME280;33994;50.998;5.864;2023-04-24T14:50:13;100373.41;;;11.32;62.29
48204;BME280;33994;50.998;5.864;2023-04-24T14:53:16;100375.13;;;11.33;62.21
48204;BME280;33994;50.998;5.864;2023-04-24T14:56:19;100373.41;;;11.32;61.42
48204;BME280;33994;50.998;5.864;2023-04-24T14:59:22;100360.16;;;11.38;61.37
48204;BME280;33994;50.998;5.864;2023-04-24T15:02:25;100370.31;;;11.51;60.98
48204;BME280;33994;50.998;5.864;2023-04-24T15:05:30;100382.59;;;11.49;60.31
48204;BME280;33994;50.998;5.864;2023-04-24T15:08:33;100380.97;;;11.44;60.33
48204;BME280;33994;50.998;5.864;2023-04-24T15:11:36;100384.47;;;11.43;60.96
48204;BME280;33994;50.998;5.864;2023-04-24T15:14:39;100391.53;;;11.40;60.45
48204;BME280;33994;50.998;5.864;2023-04-24T15:17:43;100387.91;;;11.46;62.22
48204;BME280;33994;50.998;5.864;2023-04-24T15:20:47;100386.19;;;11.44;60.55
48204;BME280;33994;50.998;5.864;2023-04-24T15:23:50;100387.97;;;11.42;60.53
48204;BME280;33994;50.998;5.864;2023-04-24T15:26:54;100389.69;;;11.43;60.64
48204;BME280;33994;50.998;5.864;2023-04-24T15:29:56;100385.16;;;11.50;60.51
48204;BME280;33994;50.998;5.864;2023-04-24T15:33:00;100386.66;;;11.60;59.96
48204;BME280;33994;50.998;5.864;2023-04-24T15:36:04;100387.50;;;11.61;59.63
48204;BME280;33994;50.998;5.864;2023-04-24T15:39:13;100385.81;;;11.60;59.22
48204;BME280;33994;50.998;5.864;2023-04-24T15:42:17;100388.16;;;11.69;59.46
48204;BME280;33994;50.998;5.864;2023-04-24T15:45:20;100393.19;;;11.77;59.04
48204;BME280;33994;50.998;5.864;2023-04-24T15:48:23;100387.88;;;11.80;58.16
48204;BME280;33994;50.998;5.864;2023-04-24T15:51:27;100393.97;;;11.80;57.50
48204;BME280;33994;50.998;5.864;2023-04-24T15:54:30;100380.84;;;11.82;57.72
48204;BME280;33994;50.998;5.864;2023-04-24T15:57:34;100373.84;;;11.82;57.29
48204;BME280;33994;50.998;5.864;2023-04-24T16:00:37;100385.31;;;11.78;57.70
48204;BME280;33994;50.998;5.864;2023-04-24T16:03:40;100384.56;;;11.73;57.64
48204;BME280;33994;50.998;5.864;2023-04-24T16:06:44;100379.59;;;11.64;58.16
48204;BME280;33994;50.998;5.864;2023-04-24T16:09:48;100392.81;;;11.58;58.61
48204;BME280;33994;50.998;5.864;2023-04-24T16:12:51;100394.06;;;11.44;58.35
48204;BME280;33994;50.998;5.864;2023-04-24T16:15:54;100401.38;;;11.30;58.77
48204;BME280;33994;50.998;5.864;2023-04-24T16:18:57;100392.09;;;11.17;59.10
48204;BME280;33994;50.998;5.864;2023-04-24T16:22:03;100393.97;;;11.12;58.86
48204;BME280;33994;50.998;5.864;2023-04-24T16:25:07;100394.13;;;11.06;58.62
48204;BME280;33994;50.998;5.864;2023-04-24T16:28:10;100400.22;;;11.06;58.49
48204;BME280;33994;50.998;5.864;2023-04-24T16:31:13;100393.31;;;11.04;58.67
48204;BME280;33994;50.998;5.864;2023-04-24T16:34:16;100395.13;;;11.00;58.19
48204;BME280;33994;50.998;5.864;2023-04-24T16:37:21;100402.06;;;11.01;58.31
48204;BME280;33994;50.998;5.864;2023-04-24T16:40:24;100408.09;;;11.05;58.64
48204;BME280;33994;50.998;5.864;2023-04-24T16:43:27;100405.59;;;11.36;58.93
48204;BME280;33994;50.998;5.864;2023-04-24T16:46:30;100407.59;;;11.26;58.83
48204;BME280;33994;50.998;5.864;2023-04-24T16:49:36;100413.09;;;11.15;59.52
48204;BME280;33994;50.998;5.864;2023-04-24T16:52:40;100422.81;;;11.09;60.60
48204;BME280;33994;50.998;5.864;2023-04-24T16:55:43;100413.50;;;10.99;61.62
48204;BME280;33994;50.998;5.864;2023-04-24T16:58:47;100428.47;;;10.92;62.74
48204;BME280;33994;50.998;5.864;2023-04-24T17:01:50;100427.72;;;10.85;63.56
48204;BME280;33994;50.998;5.864;2023-04-24T17:04:53;100435.53;;;10.88;64.26
48204;BME280;33994;50.998;5.864;2023-04-24T17:07:58;100434.72;;;10.85;64.95
48204;BME280;33994;50.998;5.864;2023-04-24T17:11:01;100438.28;;;10.81;65.20
48204;BME280;33994;50.998;5.864;2023-04-24T17:14:04;100431.44;;;10.74;65.60
48204;BME280;33994;50.998;5.864;2023-04-24T17:17:07;100439.34;;;10.70;65.84
48204;BME280;33994;50.998;5.864;2023-04-24T17:20:11;100440.31;;;10.68;65.91
48204;BME280;33994;50.998;5.864;2023-04-24T17:23:15;100435.13;;;10.65;65.45
48204;BME280;33994;50.998;5.864;2023-04-24T17:26:18;100449.16;;;10.61;64.91
48204;BME280;33994;50.998;5.864;2023-04-24T17:29:21;100436.22;;;10.55;64.71
48204;BME280;33994;50.998;5.864;2023-04-24T17:32:25;100441.44;;;10.55;64.65
48204;BME280;33994;50.998;5.864;2023-04-24T17:35:28;100443.25;;;10.53;64.41
48204;BME280;33994;50.998;5.864;2023-04-24T17:38:32;100445.13;;;10.46;64.40
48204;BME280;33994;50.998;5.864;2023-04-24T17:41:35;100446.03;;;10.43;64.42
48204;BME280;33994;50.998;5.864;2023-04-24T17:44:39;100448.78;;;10.37;64.33
48204;BME280;33994;50.998;5.864;2023-04-24T17:47:42;100450.56;;;10.35;63.81
48204;BME280;33994;50.998;5.864;2023-04-24T17:50:45;100455.88;;;10.29;63.77
48204;BME280;33994;50.998;5.864;2023-04-24T17:53:49;100451.56;;;10.28;63.67
48204;BME280;33994;50.998;5.864;2023-04-24T17:56:53;100462.06;;;10.25;63.67
48204;BME280;33994;50.998;5.864;2023-04-24T17:59:56;100465.63;;;10.21;63.66
48204;BME280;33994;50.998;5.864;2023-04-24T18:03:00;100463.97;;;10.18;63.69
48204;BME280;33994;50.998;5.864;2023-04-24T18:06:04;100470.97;;;10.16;63.82
48204;BME280;33994;50.998;5.864;2023-04-24T18:09:09;100476.13;;;10.18;64.04
48204;BME280;33994;50.998;5.864;2023-04-24T18:12:12;100465.69;;;10.18;64.14
48204;BME280;33994;50.998;5.864;2023-04-24T18:15:15;100470.06;;;10.17;64.34
48204;BME280;33994;50.998;5.864;2023-04-24T18:18:18;100471.00;;;10.15;64.30
48204;BME280;33994;50.998;5.864;2023-04-24T18:21:21;100480.66;;;10.11;64.30
48204;BME280;33994;50.998;5.864;2023-04-24T18:24:26;100479.00;;;10.06;64.39
48204;BME280;33994;50.998;5.864;2023-04-24T18:27:29;100483.44;;;10.01;64.73
48204;BME280;33994;50.998;5.864;2023-04-24T18:30:32;100477.47;;;9.95;64.82
48204;BME280;33994;50.998;5.864;2023-04-24T18:33:36;100490.50;;;9.95;65.28
48204;BME280;33994;50.998;5.864;2023-04-24T18:36:39;100487.00;;;9.96;65.30
48204;BME280;33994;50.998;5.864;2023-04-24T18:39:43;100485.25;;;9.97;65.46
48204;BME280;33994;50.998;5.864;2023-04-24T18:42:47;100491.38;;;9.94;65.44
48204;BME280;33994;50.998;5.864;2023-04-24T18:45:50;100491.47;;;9.90;65.49
48204;BME280;33994;50.998;5.864;2023-04-24T18:48:53;100497.69;;;9.84;65.73
48204;BME280;33994;50.998;5.864;2023-04-24T18:51:56;100507.31;;;9.81;65.96
48204;BME280;33994;50.998;5.864;2023-04-24T18:55:01;100506.47;;;9.79;66.06
48204;BME280;33994;50.998;5.864;2023-04-24T18:58:04;100506.56;;;9.72;66.27
48204;BME280;33994;50.998;5.864;2023-04-24T19:01:07;100513.53;;;9.72;66.48
48204;BME280;33994;50.998;5.864;2023-04-24T19:04:10;100520.53;;;9.70;66.80
48204;BME280;33994;50.998;5.864;2023-04-24T19:07:14;100525.84;;;9.64;66.70
48204;BME280;33994;50.998;5.864;2023-04-24T19:10:18;100538.13;;;9.59;66.97
48204;BME280;33994;50.998;5.864;2023-04-24T19:13:21;100539.91;;;9.55;67.20
48204;BME280;33994;50.998;5.864;2023-04-24T19:16:24;100538.19;;;9.53;67.66
48204;BME280;33994;50.998;5.864;2023-04-24T19:19:28;100543.50;;;9.49;67.78
48204;BME280;33994;50.998;5.864;2023-04-24T19:22:31;100547.91;;;9.46;68.01
48204;BME280;33994;50.998;5.864;2023-04-24T19:25:35;100556.63;;;9.43;68.35
48204;BME280;33994;50.998;5.864;2023-04-24T19:28:38;100556.59;;;9.45;68.52
48204;BME280;33994;50.998;5.864;2023-04-24T19:31:42;100556.69;;;9.39;68.77
48204;BME280;33994;50.998;5.864;2023-04-24T19:34:45;100568.94;;;9.34;68.93
48204;BME280;33994;50.998;5.864;2023-04-24T19:37:48;100568.09;;;9.30;69.24
48204;BME280;33994;50.998;5.864;2023-04-24T19:40:52;100572.47;;;9.31;69.10
48204;BME280;33994;50.998;5.864;2023-04-24T19:43:56;100576.00;;;9.25;69.27
48204;BME280;33994;50.998;5.864;2023-04-24T19:46:59;100571.69;;;9.23;69.46
48204;BME280;33994;50.998;5.864;2023-04-24T19:50:03;100567.38;;;9.17;69.62
48204;BME280;33994;50.998;5.864;2023-04-24T19:53:06;100584.81;;;9.15;69.86
48204;BME280;33994;50.998;5.864;2023-04-24T19:56:11;100590.94;;;9.13;70.04
48204;BME280;33994;50.998;5.864;2023-04-24T19:59:14;100575.34;;;9.07;70.16
48204;BME280;33994;50.998;5.864;2023-04-24T20:02:17;100574.53;;;9.05;70.30
48204;BME280;33994;50.998;5.864;2023-04-24T20:05:20;100577.19;;;8.98;70.59
48204;BME280;33994;50.998;5.864;2023-04-24T20:08:23;100582.44;;;8.97;70.70
48204;BME280;33994;50.998;5.864;2023-04-24T20:11:28;100578.16;;;8.91;70.94
48204;BME280;33994;50.998;5.864;2023-04-24T20:14:31;100580.81;;;8.88;71.14
48204;BME280;33994;50.998;5.864;2023-04-24T20:17:34;100587.75;;;8.89;70.66
48204;BME280;33994;50.998;5.864;2023-04-24T20:20:37;100580.75;;;8.91;70.83
48204;BME280;33994;50.998;5.864;2023-04-24T20:23:40;100578.22;;;8.87;70.92
48204;BME280;33994;50.998;5.864;2023-04-24T20:26:45;100579.09;;;8.84;70.98
48204;BME280;33994;50.998;5.864;2023-04-24T20:29:48;100574.81;;;8.79;71.16
48204;BME280;33994;50.998;5.864;2023-04-24T20:32:51;100570.56;;;8.71;71.41
48204;BME280;33994;50.998;5.864;2023-04-24T20:35:54;100572.31;;;8.71;71.60
48204;BME280;33994;50.998;5.864;2023-04-24T20:38:58;100570.50;;;8.76;72.07
48204;BME280;33994;50.998;5.864;2023-04-24T20:42:02;100568.75;;;8.78;71.82
48204;BME280;33994;50.998;5.864;2023-04-24T20:45:07;100578.31;;;8.76;71.63
48204;BME280;33994;50.998;5.864;2023-04-24T20:48:10;100574.03;;;8.72;71.60
48204;BME280;33994;50.998;5.864;2023-04-24T20:51:13;100583.63;;;8.68;71.77
48204;BME280;33994;50.998;5.864;2023-04-24T20:54:17;100581.06;;;8.64;71.93
48204;BME280;33994;50.998;5.864;2023-04-24T20:57:21;100581.09;;;8.62;72.22
48204;BME280;33994;50.998;5.864;2023-04-24T21:00:27;100580.25;;;8.62;72.15